This is the latest recevied weather packets stored in our database for station/object KC8JWT. If no packets are shown the sender has not sent any weather packets the latest 10 day(s).
| Time | Temp. | Humidity | Pressure | Rain* | Wind** | Luminosity | Snow |
|---|---|---|---|---|---|---|---|
| 1777563573 | 11.11° C | 86% | 1015 hPa | 0 mm | - | 473 W/m² | - |
| 1777563272 | 11.11° C | 87% | 1015.2 hPa | 0 mm | - | 336 W/m² | - |
| 1777562969 | 10.56° C | 87% | 1015.1 hPa | 0 mm | - | 242 W/m² | - |
| 1777562666 | 11.11° C | 84% | 1015 hPa | 0 mm | - | 169 W/m² | - |
| 1777562366 | 11.67° C | 82% | 1015 hPa | 0 mm | - | 223 W/m² | - |
| 1777560850 | 10.56° C | 81% | 1014.6 hPa | 0 mm | - | 170 W/m² | - |
| 1777559643 | 13.89° C | 74% | 1014.5 hPa | 0 mm | - | 97 W/m² | - |
| 1777559037 | 13.33° C | 75% | 1014.3 hPa | 0 mm | - | 278 W/m² | - |
| 1777555998 | 11.11° C | 83% | 1013.9 hPa | 0 mm | - | 396 W/m² | - |
| 1777555091 | 11.11° C | 85% | 1013.8 hPa | 0 mm | - | 439 W/m² | - |
| 1777554182 | 11.11° C | 85% | 1013.5 hPa | 0 mm | - | 107 W/m² | - |
| 1777553879 | 12.22° C | 83% | 1013.7 hPa | 0 mm | - | 159 W/m² | - |
| 1777552662 | 11.11° C | 88% | 1013.4 hPa | 0 mm | - | 100 W/m² | - |
| 1777552359 | 11.11° C | 88% | 1013.4 hPa | 0 mm | - | 261 W/m² | - |
| 1777551753 | 10.56° C | 91% | 1013.5 hPa | 0 mm | - | 174 W/m² | - |
| 1777551450 | 9.44° C | 94% | 1013.3 hPa | 0 mm | - | 161 W/m² | - |
| 1777550236 | 8.33° C | 99% | 1013 hPa | 0 mm | - | 85 W/m² | - |
| 1777549933 | 8.33° C | 99% | 1013 hPa | 0 mm | - | 84 W/m² | - |
| 1777547808 | 6.67° C | 99% | 1012.5 hPa | 0 mm | - | 35 W/m² | - |
| 1777545686 | 6.11° C | 99% | 1012.2 hPa | 0 mm | - | 7 W/m² | - |
| 1777545383 | 6.11° C | 99% | 1012 hPa | 0 mm | - | 4 W/m² | - |
| 1777545080 | 6.67° C | 99% | 1011.9 hPa | 0 mm | - | 3 W/m² | - |
| 1777544777 | 6.67° C | 99% | 1011.9 hPa | 0 mm | - | 0 W/m² | - |
| 1777544473 | 6.67° C | 99% | 1012.1 hPa | 0 mm | - | 0 W/m² | - |
| 1777544169 | 6.67° C | 99% | 1011.8 hPa | 0 mm | - | 0 W/m² | - |
* Rain latest hour (hover to see other rain measurements)
** Current wind speed in m/s (hover to see current wind gust speed)